createdAt,value
2018-02-20T00:00:35.049Z,32.50
2018-02-20T00:05:38.261Z,33.27
2018-02-20T00:10:40.977Z,33.30
2018-02-20T00:15:44.545Z,33.17
2018-02-20T00:20:47.259Z,33.17
2018-02-20T00:25:51.448Z,33.37
2018-02-20T00:30:54.098Z,34.93
2018-02-20T00:35:58.365Z,35.37
2018-02-20T00:41:00.980Z,34.93
2018-02-20T00:46:04.476Z,36.17
2018-02-20T00:51:07.210Z,37.20
2018-02-20T00:56:10.214Z,34.33
2018-02-20T01:01:12.882Z,37.87
2018-02-20T01:06:16.420Z,36.00
2018-02-20T01:11:19.022Z,35.83
2018-02-20T01:16:21.902Z,37.70
2018-02-20T01:21:24.506Z,37.90
2018-02-20T01:26:27.487Z,36.20
2018-02-20T01:31:30.887Z,38.37
2018-02-20T01:36:33.871Z,37.47
2018-02-20T01:41:37.348Z,37.90
2018-02-20T01:46:40.130Z,39.23
2018-02-20T01:51:42.762Z,39.20
2018-02-20T01:56:45.961Z,40.13
2018-02-20T02:01:49.370Z,39.17
2018-02-20T02:06:53.199Z,41.73
2018-02-20T02:11:56.671Z,40.37
2018-02-20T02:16:59.720Z,41.93
2018-02-20T02:22:03.113Z,41.47
2018-02-20T02:27:06.398Z,41.87
2018-02-20T02:32:09.008Z,40.73
2018-02-20T02:37:12.970Z,42.57
2018-02-20T02:42:16.414Z,42.97
2018-02-20T02:47:19.586Z,44.67
2018-02-20T02:52:22.226Z,43.77
2018-02-20T02:57:25.833Z,44.17
2018-02-20T03:02:29.236Z,44.97
2018-02-20T03:07:33.285Z,42.30
2018-02-20T03:12:36.643Z,44.30
2018-02-20T03:17:39.541Z,45.40
2018-02-20T03:22:42.192Z,43.57
2018-02-20T03:27:46.330Z,44.77
2018-02-20T03:32:49.737Z,44.63
2018-02-20T03:37:52.760Z,42.47
2018-02-20T03:42:56.151Z,44.73
2018-02-20T03:47:59.501Z,45.43
2018-02-20T03:53:02.139Z,45.70
2018-02-20T03:58:05.624Z,45.80
2018-02-20T04:03:08.264Z,45.70
2018-02-20T04:08:11.859Z,46.30
2018-02-20T04:13:14.535Z,46.40
2018-02-20T04:18:17.429Z,46.17
2018-02-20T04:23:20.820Z,48.77
2018-02-20T04:28:23.767Z,46.57
2018-02-20T04:33:26.364Z,48.10
2018-02-20T04:38:30.698Z,49.30
2018-02-20T04:43:33.357Z,47.57
2018-02-20T04:48:36.318Z,46.40
2018-02-20T04:53:38.945Z,46.67
2018-02-20T04:58:42.437Z,46.83
2018-02-20T05:03:45.076Z,45.50
2018-02-20T05:08:48.261Z,47.40
2018-02-20T05:13:50.849Z,46.70
2018-02-20T05:18:53.508Z,46.10
2018-02-20T05:23:56.130Z,46.23
2018-02-20T05:28:58.780Z,46.97
2018-02-20T05:34:01.421Z,47.70
2018-02-20T05:39:04.975Z,48.50
2018-02-20T05:44:07.612Z,48.13
2018-02-20T05:49:10.462Z,46.73
2018-02-20T05:54:13.094Z,46.77
2018-02-20T05:59:15.874Z,45.17
2018-02-20T06:04:18.490Z,41.13
2018-02-20T06:09:21.552Z,43.53
2018-02-20T06:14:25.010Z,41.47
2018-02-20T06:19:28.523Z,41.23
2018-02-20T06:24:31.164Z,38.43
2018-02-20T06:29:34.637Z,41.20
2018-02-20T06:34:37.271Z,39.93
2018-02-20T06:39:40.000Z,40.33
2018-02-20T06:44:44.030Z,41.03
2018-02-20T06:49:47.895Z,42.90
2018-02-20T06:54:50.540Z,41.73
2018-02-20T06:59:53.819Z,42.37
2018-02-20T07:04:56.432Z,42.17
2018-02-20T07:09:59.802Z,57.62
2018-02-20T07:15:02.433Z,41.17
2018-02-20T07:20:05.313Z,40.20
2018-02-20T07:25:07.933Z,38.43
2018-02-20T07:30:10.831Z,38.27
2018-02-20T07:35:13.458Z,40.53
2018-02-20T07:40:16.379Z,36.77
2018-02-20T07:45:19.012Z,40.50
2018-02-20T07:50:21.776Z,43.07
2018-02-20T07:55:24.366Z,36.10
2018-02-20T08:00:27.135Z,39.63
2018-02-20T08:05:29.828Z,40.50
2018-02-20T08:10:32.924Z,39.80
2018-02-20T08:15:35.532Z,36.47
2018-02-20T08:20:39.015Z,37.43
2018-02-20T08:25:41.648Z,36.87
2018-02-20T08:30:44.294Z,35.73
2018-02-20T08:35:46.921Z,34.37
2018-02-20T08:40:50.870Z,35.80
2018-02-20T08:45:53.494Z,35.40
2018-02-20T08:50:56.468Z,36.10
2018-02-20T08:55:59.866Z,38.63
2018-02-20T09:01:03.405Z,36.57
2018-02-20T09:06:06.803Z,38.00
2018-02-20T09:11:11.027Z,35.63
2018-02-20T09:16:13.644Z,36.17
2018-02-20T09:21:17.868Z,36.00
2018-02-20T09:26:20.504Z,35.27
2018-02-20T09:31:24.047Z,34.13
2018-02-20T09:36:26.712Z,37.53
2018-02-20T09:41:29.769Z,36.40
2018-02-20T09:46:32.408Z,34.20
2018-02-20T09:51:36.716Z,35.87
2018-02-20T09:56:39.310Z,34.40
2018-02-20T10:01:42.092Z,35.03
2018-02-20T10:06:44.720Z,35.97
2018-02-20T10:11:47.497Z,37.57
2018-02-20T10:16:50.128Z,37.03
2018-02-20T10:21:53.195Z,37.50
2018-02-20T10:26:55.837Z,39.07
2018-02-20T10:31:58.623Z,37.97
2018-02-20T10:37:01.212Z,33.10
2018-02-20T10:42:04.319Z,36.17
2018-02-20T10:47:06.939Z,35.27
2018-02-20T10:52:10.549Z,36.87
2018-02-20T10:57:13.186Z,36.07
2018-02-20T11:02:17.544Z,39.00
2018-02-20T11:07:20.166Z,36.90
2018-02-20T11:12:23.023Z,37.53
2018-02-20T11:17:26.452Z,36.27
2018-02-20T11:22:30.785Z,37.13
2018-02-20T11:27:34.172Z,36.40
2018-02-20T11:32:37.250Z,36.77
2018-02-20T11:37:39.888Z,37.67
2018-02-20T11:42:44.750Z,34.37
2018-02-20T11:47:48.158Z,35.73
2018-02-20T11:52:51.626Z,36.37
2018-02-20T11:57:54.270Z,36.07
2018-02-20T12:02:57.251Z,34.50
2018-02-20T12:07:59.847Z,35.60
2018-02-20T12:13:03.023Z,34.77
2018-02-20T12:18:05.644Z,33.13
2018-02-20T12:23:08.946Z,33.80
2018-02-20T12:28:11.567Z,34.17
2018-02-20T12:33:14.920Z,30.50
2018-02-20T12:38:17.542Z,31.43
2018-02-20T12:43:20.327Z,29.63
2018-02-20T12:48:23.722Z,30.33
2018-02-20T12:53:27.011Z,29.93
2018-02-20T12:58:29.635Z,33.67
2018-02-20T13:03:33.112Z,28.73
2018-02-20T13:08:35.765Z,26.30
2018-02-20T13:13:38.544Z,26.50
2018-02-20T13:18:41.176Z,25.80
2018-02-20T13:23:44.828Z,25.47
2018-02-20T13:28:47.464Z,22.33
2018-02-20T13:33:50.457Z,21.70
2018-02-20T13:38:53.110Z,20.17
2018-02-20T13:43:56.649Z,21.03
2018-02-20T13:48:59.291Z,18.73
2018-02-20T13:54:02.064Z,17.70
2018-02-20T13:59:04.695Z,18.93
2018-02-20T14:04:07.881Z,17.57
2018-02-20T14:09:10.480Z,18.90
2018-02-20T14:14:13.757Z,18.57
2018-02-20T14:19:17.129Z,18.23
2018-02-20T14:24:20.701Z,18.00
2018-02-20T14:29:23.344Z,19.70
2018-02-20T14:34:26.526Z,18.67
2018-02-20T14:39:29.163Z,18.20
2018-02-20T14:44:32.438Z,18.27
2018-02-20T14:49:35.036Z,17.60
2018-02-20T14:54:38.599Z,19.47
2018-02-20T14:59:41.215Z,18.57
2018-02-20T15:04:44.286Z,17.80
2018-02-20T15:09:48.015Z,18.37
2018-02-20T15:14:51.042Z,18.00
2018-02-20T15:19:53.677Z,19.00
2018-02-20T15:24:57.900Z,17.93
2018-02-20T15:30:01.287Z,20.23
2018-02-20T15:35:04.238Z,20.43
2018-02-20T15:40:06.874Z,20.03
2018-02-20T15:45:10.355Z,20.63
2018-02-20T15:50:12.979Z,17.53
2018-02-20T15:55:16.252Z,20.10
2018-02-20T16:00:19.644Z,21.33
2018-02-20T16:05:23.106Z,22.13
2018-02-20T16:10:25.805Z,21.07
2018-02-20T16:15:28.417Z,22.23
2018-02-20T16:20:31.229Z,21.90
2018-02-20T16:25:35.341Z,21.50
2018-02-20T16:30:37.949Z,23.70
2018-02-20T16:35:41.251Z,23.23
2018-02-20T16:40:44.656Z,23.47
2018-02-20T16:45:48.964Z,24.90
2018-02-20T16:50:51.719Z,23.90
2018-02-20T16:55:55.025Z,22.30
2018-02-20T17:00:57.643Z,22.10
2018-02-20T17:06:00.588Z,22.67
2018-02-20T17:11:04.034Z,21.03
2018-02-20T17:16:08.291Z,21.73
2018-02-20T17:21:10.965Z,21.43
2018-02-20T17:26:14.382Z,20.87
2018-02-20T17:31:17.045Z,20.17
2018-02-20T17:36:19.741Z,22.00
2018-02-20T17:41:22.380Z,21.73
2018-02-20T17:46:26.427Z,22.57
2018-02-20T17:51:30.050Z,21.77
2018-02-20T17:56:33.387Z,22.00
2018-02-20T18:01:36.036Z,22.90
2018-02-20T18:06:39.691Z,21.53
2018-02-20T18:11:42.313Z,22.57
2018-02-20T18:16:45.525Z,22.43
2018-02-20T18:21:48.123Z,21.20
2018-02-20T18:26:51.374Z,21.80
2018-02-20T18:31:54.113Z,20.07
2018-02-20T18:36:57.676Z,21.00
2018-02-20T18:42:00.448Z,19.47
2018-02-20T18:47:04.053Z,20.20
2018-02-20T18:52:07.115Z,19.00
2018-02-20T18:57:09.802Z,19.87
2018-02-20T19:02:12.509Z,19.63
2018-02-20T19:07:16.268Z,20.60
2018-02-20T19:12:19.324Z,19.77
2018-02-20T19:17:22.412Z,20.70
2018-02-20T19:22:25.613Z,19.50
2018-02-20T19:27:29.966Z,19.43
2018-02-20T19:32:32.659Z,19.33
2018-02-20T19:37:36.303Z,18.87
2018-02-20T19:42:39.033Z,19.47
2018-02-20T19:47:42.536Z,19.30
2018-02-20T19:52:45.494Z,21.30
2018-02-20T19:57:49.038Z,20.23
2018-02-20T20:02:51.660Z,22.77
2018-02-20T20:07:54.932Z,22.70
2018-02-20T20:12:58.673Z,22.30
2018-02-20T20:18:01.648Z,23.40
2018-02-20T20:23:04.300Z,23.03
2018-02-20T20:28:07.270Z,21.27
2018-02-20T20:33:11.002Z,22.50
2018-02-20T20:38:13.846Z,23.57
2018-02-20T20:43:16.484Z,22.73
2018-02-20T20:48:20.821Z,21.80
2018-02-20T20:53:23.672Z,23.00
2018-02-20T20:58:27.065Z,23.63
2018-02-20T21:03:30.100Z,23.47
2018-02-20T21:08:33.263Z,24.03
2018-02-20T21:13:35.983Z,22.47
2018-02-20T21:18:40.118Z,23.03
2018-02-20T21:23:43.506Z,23.77
2018-02-20T21:28:46.547Z,23.67
2018-02-20T21:33:49.688Z,23.93
2018-02-20T21:38:53.489Z,23.90
2018-02-20T21:43:56.141Z,26.37
2018-02-20T21:48:59.689Z,25.33
2018-02-20T21:54:03.077Z,24.33
2018-02-20T21:59:06.450Z,24.70
2018-02-20T22:04:09.244Z,24.20
2018-02-20T22:09:12.189Z,23.73
2018-02-20T22:14:14.822Z,23.60
2018-02-20T22:19:18.690Z,25.83
2018-02-20T22:24:21.371Z,24.43
2018-02-20T22:29:24.687Z,24.50
2018-02-20T22:34:27.313Z,23.53
2018-02-20T22:39:30.885Z,24.77
2018-02-20T22:44:34.331Z,24.80
2018-02-20T22:49:37.954Z,23.63
2018-02-20T22:54:40.596Z,25.10
2018-02-20T22:59:44.159Z,21.87
2018-02-20T23:04:46.860Z,22.83
2018-02-20T23:09:50.629Z,23.97
2018-02-20T23:14:53.259Z,23.00
2018-02-20T23:19:56.505Z,22.77
2018-02-20T23:24:59.300Z,23.43
2018-02-20T23:30:02.729Z,23.03
2018-02-20T23:35:05.444Z,23.10
2018-02-20T23:40:08.392Z,23.87
2018-02-20T23:45:11.815Z,22.63
2018-02-20T23:50:15.320Z,23.23
2018-02-20T23:55:18.031Z,24.70
